Air Navigation Services of Czech Republic
Airport: LKKB Updated:  25.03.2019 21:00:07  UTC
 METAR LKKB 25.03. 21:00 ...
METAR LKKB 252100Z 31009KT 280V340 9999 FEW030 BKN060 04/M01 Q1020 RMK BLU=
 TAF LKKB 25.03. 17:00 ...
TAF LKKB 251700Z 2518/2618 29010KT 9999 SCT030      TEMPO 2518/2602 29016G26KT 6000 SHRASN BKN023TCU      BECMG 2607/2609 30015G25KT BKN035=